createdAt,value
2023-01-07T00:01:51.739Z,13.08
2023-01-07T00:04:26.022Z,13.15
2023-01-07T00:06:59.726Z,13.20
2023-01-07T00:09:32.687Z,13.14
2023-01-07T00:12:05.643Z,13.02
2023-01-07T00:14:38.194Z,13.14
2023-01-07T00:17:11.060Z,13.20
2023-01-07T00:19:45.411Z,13.09
2023-01-07T00:22:18.558Z,13.15
2023-01-07T00:24:51.915Z,13.10
2023-01-07T00:27:25.488Z,13.04
2023-01-07T00:29:58.725Z,13.08
2023-01-07T00:35:40.766Z,12.94
2023-01-07T00:38:13.749Z,13.02
2023-01-07T00:40:46.678Z,12.99
2023-01-07T00:43:20.117Z,12.98
2023-01-07T00:45:53.261Z,13.05
2023-01-07T00:48:30.213Z,12.96
2023-01-07T00:51:04.583Z,13.05
2023-01-07T00:53:37.524Z,12.94
2023-01-07T00:56:10.769Z,13.04
2023-01-07T00:58:44.094Z,13.04
2023-01-07T01:01:17.542Z,12.96
2023-01-07T01:03:52.964Z,13.09
2023-01-07T01:06:27.385Z,13.05
2023-01-07T01:09:00.550Z,12.88
2023-01-07T01:11:36.085Z,12.90
2023-01-07T01:14:11.417Z,12.94
2023-01-07T01:16:44.384Z,12.69
2023-01-07T01:19:17.515Z,12.72
2023-01-07T01:21:51.523Z,12.78
2023-01-07T01:24:24.824Z,12.73
2023-01-07T01:26:58.004Z,12.76
2023-01-07T01:29:30.874Z,12.75
2023-01-07T01:32:04.557Z,12.73
2023-01-07T01:34:39.866Z,12.67
2023-01-07T01:37:14.045Z,12.77
2023-01-07T01:39:46.952Z,12.80
2023-01-07T01:42:25.433Z,12.61
2023-01-07T01:45:01.488Z,12.71
2023-01-07T01:47:45.365Z,12.62
2023-01-07T01:50:22.867Z,12.56
2023-01-07T01:53:05.806Z,12.56
2023-01-07T01:55:43.423Z,12.58
2023-01-07T01:58:24.332Z,12.59
2023-01-07T02:00:57.771Z,12.65
2023-01-07T02:03:34.073Z,12.63
2023-01-07T02:06:10.665Z,12.54
2023-01-07T02:08:47.575Z,12.43
2023-01-07T02:11:35.025Z,12.62
2023-01-07T02:14:26.874Z,12.50
2023-01-07T02:17:05.797Z,12.55
2023-01-07T02:20:08.792Z,12.41
2023-01-07T02:23:07.744Z,12.42
2023-01-07T02:26:21.012Z,12.41
2023-01-07T02:29:43.902Z,12.47
2023-01-07T02:32:31.445Z,12.51
2023-01-07T02:35:18.471Z,12.40
2023-01-07T02:38:01.658Z,12.38
2023-01-07T02:40:43.847Z,12.34
2023-01-07T02:43:27.811Z,12.50
2023-01-07T02:46:10.380Z,12.35
2023-01-07T02:48:47.358Z,12.34
2023-01-07T02:51:20.733Z,12.40
2023-01-07T02:53:53.748Z,12.44
2023-01-07T02:56:37.981Z,12.41
2023-01-07T02:59:47.480Z,12.39
2023-01-07T03:02:45.400Z,12.41
2023-01-07T03:05:33.461Z,12.52
2023-01-07T03:08:21.264Z,12.49
2023-01-07T03:11:00.036Z,12.37
2023-01-07T03:13:41.700Z,12.38
2023-01-07T03:16:22.981Z,12.45
2023-01-07T03:19:02.190Z,12.52
2023-01-07T03:21:38.261Z,12.40
2023-01-07T03:24:11.410Z,12.36
2023-01-07T03:26:48.670Z,12.27
2023-01-07T03:29:22.948Z,12.27
2023-01-07T03:32:04.277Z,12.30
2023-01-07T03:34:41.800Z,12.24
2023-01-07T03:37:19.032Z,12.26
2023-01-07T03:39:56.583Z,12.22
2023-01-07T03:42:40.662Z,12.32
2023-01-07T03:45:19.408Z,12.21
2023-01-07T03:47:55.511Z,12.19
2023-01-07T03:50:30.480Z,12.19
2023-01-07T03:53:08.010Z,12.29
2023-01-07T03:55:43.375Z,12.27
2023-01-07T03:58:16.565Z,12.22
2023-01-07T04:00:50.938Z,12.28
2023-01-07T04:03:25.357Z,12.40
2023-01-07T04:05:58.137Z,12.26
2023-01-07T04:08:32.738Z,12.24
2023-01-07T04:11:06.877Z,12.31
2023-01-07T04:13:40.512Z,12.25
2023-01-07T04:16:13.934Z,12.27
2023-01-07T04:18:47.396Z,12.39
2023-01-07T04:21:20.179Z,12.39
2023-01-07T04:23:54.642Z,12.43
2023-01-07T04:26:27.644Z,12.40
2023-01-07T04:29:01.210Z,12.28
2023-01-07T04:31:34.809Z,12.41
2023-01-07T04:34:08.517Z,12.31
2023-01-07T04:36:41.385Z,12.40
2023-01-07T04:39:16.628Z,12.42
2023-01-07T04:41:50.118Z,12.45
2023-01-07T04:44:23.534Z,12.33
2023-01-07T04:46:56.250Z,12.34
2023-01-07T04:49:29.250Z,12.33
2023-01-07T04:52:03.886Z,12.36
2023-01-07T04:54:38.115Z,12.35
2023-01-07T04:57:11.436Z,12.26
2023-01-07T04:59:44.713Z,12.40
2023-01-07T05:02:17.852Z,12.40
2023-01-07T05:04:51.234Z,12.34
2023-01-07T05:07:25.414Z,12.27
2023-01-07T05:10:00.480Z,12.42
2023-01-07T05:12:35.263Z,12.37
2023-01-07T05:15:09.656Z,12.34
2023-01-07T05:17:45.774Z,12.32
2023-01-07T05:20:19.620Z,12.32
2023-01-07T05:22:53.248Z,12.41
2023-01-07T05:25:27.470Z,12.32
2023-01-07T05:28:01.110Z,12.33
2023-01-07T05:30:36.602Z,12.33
2023-01-07T05:33:09.896Z,12.37
2023-01-07T05:35:42.807Z,12.39
2023-01-07T05:38:15.883Z,12.41
2023-01-07T05:40:51.320Z,12.42
2023-01-07T05:43:29.616Z,12.31
2023-01-07T05:46:02.448Z,12.22
2023-01-07T05:48:35.342Z,12.22
2023-01-07T05:51:08.805Z,12.27
2023-01-07T05:53:41.690Z,12.26
2023-01-07T05:56:15.861Z,11.97
2023-01-07T05:58:48.778Z,12.26
2023-01-07T06:01:21.500Z,12.09
2023-01-07T06:03:54.357Z,12.12
2023-01-07T06:06:27.390Z,12.14
2023-01-07T06:09:00.381Z,12.20
2023-01-07T06:11:34.804Z,12.10
2023-01-07T06:14:07.640Z,12.11
2023-01-07T06:16:40.644Z,12.15
2023-01-07T06:19:13.313Z,12.00
2023-01-07T06:21:46.170Z,12.02
2023-01-07T06:24:18.969Z,12.09
2023-01-07T06:26:53.305Z,11.94
2023-01-07T06:29:26.605Z,12.03
2023-01-07T06:31:59.761Z,11.99
2023-01-07T06:34:32.753Z,11.99
2023-01-07T06:37:05.994Z,12.03
2023-01-07T06:39:38.937Z,11.92
2023-01-07T06:42:13.248Z,12.07
2023-01-07T06:44:46.040Z,12.03
2023-01-07T06:47:18.862Z,11.95
2023-01-07T06:49:51.657Z,11.81
2023-01-07T06:52:24.514Z,11.89
2023-01-07T06:54:57.326Z,11.79
2023-01-07T06:57:31.468Z,11.86
2023-01-07T07:00:05.527Z,11.90
2023-01-07T07:02:38.421Z,11.89
2023-01-07T07:05:11.590Z,11.90
2023-01-07T07:07:45.006Z,11.86
2023-01-07T07:10:17.710Z,11.96
2023-01-07T07:12:51.824Z,11.89
2023-01-07T07:15:24.660Z,11.90
2023-01-07T07:17:57.697Z,12.03
2023-01-07T07:20:30.361Z,12.02
2023-01-07T07:23:03.624Z,11.95
2023-01-07T07:25:36.482Z,11.99
2023-01-07T07:28:10.761Z,11.99
2023-01-07T07:30:46.385Z,11.86
2023-01-07T07:33:20.659Z,11.83
2023-01-07T07:35:54.292Z,11.91
2023-01-07T07:38:27.965Z,11.97
2023-01-07T07:41:02.498Z,12.00
2023-01-07T07:43:39.787Z,11.99
2023-01-07T07:46:17.641Z,12.00
2023-01-07T07:48:53.397Z,12.01
2023-01-07T07:51:26.332Z,11.97
2023-01-07T07:53:59.330Z,11.92
2023-01-07T07:56:32.811Z,11.89
2023-01-07T07:59:07.004Z,11.95
2023-01-07T08:01:39.865Z,11.81
2023-01-07T08:04:12.575Z,11.96
2023-01-07T08:06:45.317Z,11.94
2023-01-07T08:09:18.074Z,11.85
2023-01-07T08:11:51.211Z,11.91
2023-01-07T08:14:25.517Z,11.82
2023-01-07T08:16:58.246Z,11.92
2023-01-07T08:19:30.919Z,12.01
2023-01-07T08:22:03.857Z,11.99
2023-01-07T08:24:36.442Z,11.94
2023-01-07T08:27:09.189Z,11.98
2023-01-07T08:29:43.224Z,11.85
2023-01-07T08:32:16.089Z,11.89
2023-01-07T08:34:49.305Z,11.93
2023-01-07T08:37:22.268Z,12.02
2023-01-07T08:39:55.198Z,11.87
2023-01-07T08:42:29.381Z,11.96
2023-01-07T08:45:03.985Z,11.92
2023-01-07T08:47:36.815Z,11.94
2023-01-07T08:50:10.232Z,11.95
2023-01-07T08:52:42.941Z,11.95
2023-01-07T08:55:16.145Z,12.04
2023-01-07T08:57:49.385Z,12.16
2023-01-07T09:00:24.663Z,12.17
2023-01-07T09:02:57.503Z,12.11
2023-01-07T09:05:30.556Z,12.01
2023-01-07T09:08:04.118Z,12.17
2023-01-07T09:10:36.915Z,12.13
2023-01-07T09:13:09.685Z,11.99
2023-01-07T09:15:43.948Z,12.10
2023-01-07T09:18:16.737Z,11.97
2023-01-07T09:20:49.475Z,12.06
2023-01-07T09:23:22.282Z,12.23
2023-01-07T09:25:55.088Z,12.01
2023-01-07T09:28:27.818Z,12.07
2023-01-07T09:31:05.692Z,11.97
2023-01-07T09:33:40.149Z,12.02
2023-01-07T09:36:13.675Z,12.13
2023-01-07T09:38:46.400Z,12.15
2023-01-07T09:41:30.557Z,12.05
2023-01-07T09:44:14.712Z,12.08
2023-01-07T09:46:49.613Z,12.07
2023-01-07T09:49:25.524Z,12.27
2023-01-07T09:52:05.627Z,12.22
2023-01-07T09:54:40.638Z,12.39
2023-01-07T09:57:17.703Z,12.36
2023-01-07T09:59:50.946Z,12.38
2023-01-07T10:02:43.784Z,12.37
2023-01-07T10:05:30.368Z,12.30
2023-01-07T10:08:30.475Z,12.25
2023-01-07T10:11:16.596Z,12.42
2023-01-07T10:14:04.989Z,12.18
2023-01-07T10:16:46.081Z,12.44
2023-01-07T10:19:27.825Z,12.49
2023-01-07T10:22:05.643Z,12.51
2023-01-07T10:24:43.700Z,12.45
2023-01-07T10:27:19.796Z,12.50
2023-01-07T10:29:57.399Z,12.54
2023-01-07T10:32:33.830Z,12.57
2023-01-07T10:35:17.548Z,12.55
2023-01-07T10:37:50.721Z,12.53
2023-01-07T10:40:32.383Z,12.58
2023-01-07T10:43:20.827Z,12.58
2023-01-07T10:46:11.000Z,12.59
2023-01-07T10:49:01.073Z,12.54
2023-01-07T10:51:51.715Z,12.57
2023-01-07T10:54:42.576Z,12.63
2023-01-07T10:57:19.453Z,12.62
2023-01-07T10:59:54.663Z,12.67
2023-01-07T11:02:28.379Z,12.71
2023-01-07T11:05:01.725Z,12.81
2023-01-07T11:07:46.971Z,12.65
2023-01-07T11:10:24.061Z,12.63
2023-01-07T11:13:00.603Z,12.67
2023-01-07T11:15:38.107Z,12.70
2023-01-07T11:18:14.505Z,12.70
2023-01-07T11:20:49.979Z,12.68
2023-01-07T11:23:35.853Z,12.81
2023-01-07T11:26:12.920Z,12.81
2023-01-07T11:28:53.250Z,12.83
2023-01-07T11:31:49.241Z,12.84
2023-01-07T11:34:26.441Z,12.64
2023-01-07T11:36:59.657Z,12.73
2023-01-07T11:39:35.701Z,12.68
2023-01-07T11:42:39.327Z,12.77
2023-01-07T11:45:15.673Z,12.72
2023-01-07T11:47:53.830Z,12.74
2023-01-07T11:50:29.982Z,12.69
2023-01-07T11:53:12.186Z,12.75
2023-01-07T11:55:58.975Z,12.84
2023-01-07T11:58:34.472Z,12.78
2023-01-07T12:01:16.791Z,12.82
2023-01-07T12:04:14.861Z,12.91
2023-01-07T12:06:51.148Z,12.79
2023-01-07T12:09:37.343Z,12.85
2023-01-07T12:12:34.856Z,12.85
2023-01-07T12:15:19.127Z,12.82
2023-01-07T12:18:00.065Z,12.88
2023-01-07T12:21:17.693Z,12.88
2023-01-07T12:24:06.015Z,12.70
2023-01-07T12:26:46.100Z,12.78
2023-01-07T12:29:37.651Z,12.71
2023-01-07T12:32:24.277Z,12.69
2023-01-07T12:35:15.193Z,12.85
2023-01-07T12:37:56.648Z,12.84
2023-01-07T12:40:34.082Z,12.85
2023-01-07T12:43:22.249Z,12.87
2023-01-07T12:46:00.912Z,12.78
2023-01-07T12:48:44.438Z,12.86
2023-01-07T12:51:24.837Z,12.94
2023-01-07T12:54:05.805Z,12.78
2023-01-07T12:56:43.297Z,12.87
2023-01-07T12:59:47.284Z,12.85
2023-01-07T13:02:27.581Z,12.82
2023-01-07T13:05:11.931Z,12.90
2023-01-07T13:07:52.549Z,12.80
2023-01-07T13:10:30.027Z,12.74
2023-01-07T13:13:07.636Z,12.81
2023-01-07T13:15:41.955Z,12.90
2023-01-07T13:18:18.725Z,12.84
2023-01-07T13:21:04.735Z,12.86
2023-01-07T13:23:54.809Z,12.82
2023-01-07T13:26:38.192Z,12.86
2023-01-07T13:29:28.851Z,12.84
2023-01-07T13:32:31.669Z,12.96
2023-01-07T13:35:23.858Z,12.80
2023-01-07T13:38:13.479Z,12.87
2023-01-07T13:40:59.188Z,12.85
2023-01-07T13:43:51.388Z,12.81
2023-01-07T13:46:29.301Z,12.92
2023-01-07T13:49:02.096Z,12.81
2023-01-07T13:51:38.204Z,12.82
2023-01-07T13:54:11.974Z,12.76
2023-01-07T13:56:44.825Z,12.79
2023-01-07T13:59:32.210Z,12.84
2023-01-07T14:02:20.688Z,12.78
2023-01-07T14:05:06.592Z,12.79
2023-01-07T14:07:48.030Z,12.72
2023-01-07T14:10:28.387Z,12.75
2023-01-07T14:13:21.062Z,12.84
2023-01-07T14:16:04.164Z,12.86
2023-01-07T14:18:53.253Z,12.79
2023-01-07T14:21:53.092Z,12.81
2023-01-07T14:24:44.631Z,12.84
2023-01-07T14:27:34.869Z,12.77
2023-01-07T14:30:20.581Z,12.74
2023-01-07T14:32:59.615Z,12.86
2023-01-07T14:35:38.604Z,12.84
2023-01-07T14:38:48.692Z,12.78
2023-01-07T14:41:22.874Z,12.78
2023-01-07T14:44:29.916Z,12.78
2023-01-07T14:47:03.170Z,12.77
2023-01-07T14:49:51.077Z,12.80
2023-01-07T14:52:50.841Z,12.60
2023-01-07T14:55:56.532Z,12.72
2023-01-07T14:58:47.577Z,12.55
2023-01-07T15:01:32.212Z,12.60
2023-01-07T15:04:49.883Z,12.63
2023-01-07T15:07:26.477Z,12.61
2023-01-07T15:10:35.021Z,12.60
2023-01-07T15:13:30.547Z,12.60
2023-01-07T15:16:11.777Z,12.56
2023-01-07T15:18:48.913Z,12.48
2023-01-07T15:21:34.088Z,12.50
2023-01-07T15:24:16.250Z,12.57
2023-01-07T15:26:55.531Z,12.66
2023-01-07T15:29:36.609Z,12.66
2023-01-07T15:32:24.820Z,12.53
2023-01-07T15:34:58.583Z,12.58
2023-01-07T15:37:35.292Z,12.47
2023-01-07T15:40:18.018Z,12.64
2023-01-07T15:42:53.521Z,12.47
2023-01-07T15:45:28.938Z,12.45
2023-01-07T15:48:13.705Z,12.45
2023-01-07T15:50:47.322Z,12.32
2023-01-07T15:53:22.831Z,12.54
2023-01-07T15:56:00.587Z,12.42
2023-01-07T15:58:42.960Z,12.35
2023-01-07T16:01:19.456Z,12.28
2023-01-07T16:03:56.832Z,12.28
2023-01-07T16:06:36.410Z,12.27
2023-01-07T16:09:19.020Z,12.21
2023-01-07T16:11:52.641Z,12.40
2023-01-07T16:14:28.546Z,12.29
2023-01-07T16:17:15.368Z,12.32
2023-01-07T16:20:12.371Z,12.29
2023-01-07T16:22:50.509Z,12.25
2023-01-07T16:25:30.968Z,12.25
2023-01-07T16:28:05.863Z,12.14
2023-01-07T16:30:43.088Z,12.23
2023-01-07T16:33:21.431Z,12.17
2023-01-07T16:35:58.222Z,12.09
2023-01-07T16:38:34.034Z,12.24
2023-01-07T16:41:07.330Z,12.25
2023-01-07T16:43:45.523Z,12.07
2023-01-07T16:46:24.584Z,12.29
2023-01-07T16:49:22.007Z,12.24
2023-01-07T16:52:06.440Z,12.07
2023-01-07T16:54:41.476Z,12.16
2023-01-07T16:57:42.616Z,12.14
2023-01-07T17:00:18.766Z,11.99
2023-01-07T17:02:56.322Z,12.01
2023-01-07T17:05:31.982Z,12.04
2023-01-07T17:08:28.028Z,12.10
2023-01-07T17:11:06.404Z,12.09
2023-01-07T17:13:40.581Z,12.06
2023-01-07T17:16:30.218Z,12.15
2023-01-07T17:19:27.060Z,11.99
2023-01-07T17:22:00.352Z,11.93
2023-01-07T17:24:48.706Z,12.04
2023-01-07T17:27:29.755Z,11.99
2023-01-07T17:30:04.809Z,11.96
2023-01-07T17:32:38.470Z,12.06
2023-01-07T17:35:20.430Z,11.94
2023-01-07T17:37:54.645Z,11.91
2023-01-07T17:40:29.001Z,11.83
2023-01-07T17:43:20.096Z,11.94
2023-01-07T17:45:53.142Z,11.98
2023-01-07T17:48:25.969Z,12.09
2023-01-07T17:51:05.472Z,12.10
2023-01-07T17:53:44.172Z,11.97
2023-01-07T17:56:18.691Z,12.07
2023-01-07T17:58:52.053Z,11.99
2023-01-07T18:01:27.472Z,11.77
2023-01-07T18:04:00.644Z,12.22
2023-01-07T18:06:35.057Z,12.04
2023-01-07T18:09:08.853Z,12.08
2023-01-07T18:12:03.872Z,11.86
2023-01-07T18:14:38.720Z,12.03
2023-01-07T18:17:14.238Z,11.96
2023-01-07T18:19:48.974Z,12.01
2023-01-07T18:22:25.860Z,11.93
2023-01-07T18:25:01.945Z,11.90
2023-01-07T18:27:36.618Z,11.67
2023-01-07T18:30:14.983Z,11.68
2023-01-07T18:32:48.523Z,11.64
2023-01-07T18:35:26.502Z,11.83
2023-01-07T18:37:59.871Z,11.82
2023-01-07T18:40:32.945Z,11.96
2023-01-07T18:43:09.759Z,11.86
2023-01-07T18:45:43.466Z,11.96
2023-01-07T18:48:18.865Z,11.87
2023-01-07T18:50:51.850Z,11.92
2023-01-07T18:53:27.365Z,11.98
2023-01-07T18:56:02.204Z,11.96
2023-01-07T18:58:36.745Z,11.86
2023-01-07T19:01:11.028Z,11.80
2023-01-07T19:03:44.306Z,11.74
2023-01-07T19:06:17.427Z,11.94
2023-01-07T19:08:50.748Z,12.03
2023-01-07T19:11:23.481Z,11.78
2023-01-07T19:13:58.143Z,11.79
2023-01-07T19:16:31.092Z,11.81
2023-01-07T19:19:05.266Z,11.74
2023-01-07T19:21:38.149Z,12.04
2023-01-07T19:24:11.639Z,11.89
2023-01-07T19:26:44.561Z,11.83
2023-01-07T19:29:19.134Z,11.97
2023-01-07T19:31:52.398Z,11.94
2023-01-07T19:34:26.995Z,11.96
2023-01-07T19:37:03.668Z,12.03
2023-01-07T19:39:36.439Z,11.94
2023-01-07T19:42:10.046Z,11.87
2023-01-07T19:44:44.548Z,11.96
2023-01-07T19:47:18.089Z,11.95
2023-01-07T19:49:51.213Z,11.91
2023-01-07T19:52:24.323Z,11.97
2023-01-07T19:55:00.580Z,12.01
2023-01-07T19:57:34.257Z,12.00
2023-01-07T20:00:12.881Z,11.98
2023-01-07T20:02:45.794Z,11.89
2023-01-07T20:05:19.210Z,11.86
2023-01-07T20:07:51.998Z,11.98
2023-01-07T20:10:25.627Z,12.09
2023-01-07T20:12:58.785Z,12.00
2023-01-07T20:15:33.225Z,11.85
2023-01-07T20:18:06.909Z,12.06
2023-01-07T20:20:39.820Z,12.04
2023-01-07T20:23:12.709Z,11.93
2023-01-07T20:25:46.139Z,12.12
2023-01-07T20:28:19.521Z,11.99
2023-01-07T20:30:54.370Z,11.98
2023-01-07T20:33:27.233Z,11.95
2023-01-07T20:36:01.390Z,12.18
2023-01-07T20:38:35.455Z,12.04
2023-01-07T20:41:10.465Z,11.83
2023-01-07T20:43:43.787Z,11.98
2023-01-07T20:46:20.955Z,11.93
2023-01-07T20:48:56.323Z,11.90
2023-01-07T20:51:29.418Z,11.99
2023-01-07T20:54:02.995Z,11.94
2023-01-07T20:56:36.898Z,11.91
2023-01-07T20:59:13.201Z,11.83
2023-01-07T21:01:49.453Z,11.85
2023-01-07T21:04:22.512Z,11.83
2023-01-07T21:06:55.280Z,11.79
2023-01-07T21:09:28.119Z,11.95
2023-01-07T21:12:00.885Z,11.92
2023-01-07T21:14:33.751Z,11.84
2023-01-07T21:17:11.591Z,11.76
2023-01-07T21:19:45.271Z,11.82
2023-01-07T21:22:23.853Z,11.60
2023-01-07T21:24:57.062Z,11.82
2023-01-07T21:27:29.935Z,11.91
2023-01-07T21:30:05.775Z,12.02
2023-01-07T21:32:40.617Z,12.16
2023-01-07T21:35:13.741Z,12.05
2023-01-07T21:37:46.357Z,12.01
2023-01-07T21:40:19.296Z,12.02
2023-01-07T21:42:51.946Z,11.97
2023-01-07T21:45:28.868Z,12.01
2023-01-07T21:48:05.504Z,12.14
2023-01-07T21:50:39.034Z,12.15
2023-01-07T21:53:11.960Z,12.00
2023-01-07T21:55:44.626Z,11.95
2023-01-07T21:58:17.420Z,11.88
2023-01-07T22:00:51.014Z,12.06
2023-01-07T22:03:25.419Z,12.13
2023-01-07T22:05:59.495Z,12.04
2023-01-07T22:08:32.575Z,11.99
2023-01-07T22:11:05.323Z,12.04
2023-01-07T22:13:38.134Z,11.97
2023-01-07T22:16:11.944Z,11.94
2023-01-07T22:18:46.197Z,12.03
2023-01-07T22:21:19.776Z,12.00
2023-01-07T22:23:52.896Z,12.04
2023-01-07T22:26:25.779Z,11.97
2023-01-07T22:29:03.212Z,12.02
2023-01-07T22:31:37.783Z,12.09
2023-01-07T22:34:11.950Z,12.09
2023-01-07T22:36:49.579Z,12.10
2023-01-07T22:39:27.461Z,12.01
2023-01-07T22:42:06.652Z,12.00
2023-01-07T22:44:43.477Z,12.00
2023-01-07T22:47:20.404Z,12.08
2023-01-07T22:49:55.003Z,11.96
2023-01-07T22:52:27.935Z,12.01
2023-01-07T22:55:01.457Z,11.97
2023-01-07T22:57:35.574Z,11.91
2023-01-07T23:00:18.828Z,11.90
2023-01-07T23:02:51.700Z,11.86
2023-01-07T23:05:26.020Z,11.95
2023-01-07T23:07:59.171Z,11.85
2023-01-07T23:10:32.096Z,11.83
2023-01-07T23:13:05.025Z,11.83
2023-01-07T23:15:42.011Z,11.83
2023-01-07T23:18:14.900Z,11.81
2023-01-07T23:20:49.141Z,11.80
2023-01-07T23:23:22.088Z,11.75
2023-01-07T23:25:54.837Z,11.81
2023-01-07T23:28:27.715Z,11.77
2023-01-07T23:31:02.045Z,11.83
2023-01-07T23:33:34.879Z,11.79
2023-01-07T23:36:10.528Z,11.79
2023-01-07T23:38:44.776Z,11.66
2023-01-07T23:41:19.652Z,11.77
2023-01-07T23:43:52.472Z,11.77
2023-01-07T23:46:25.606Z,11.67
2023-01-07T23:48:58.363Z,11.64
2023-01-07T23:51:32.567Z,11.73
2023-01-07T23:54:05.480Z,11.73
2023-01-07T23:56:38.257Z,11.63
2023-01-07T23:59:11.368Z,11.72
